createdAt,value
2018-12-08T00:01:04.568Z,9.99
2018-12-08T00:06:08.828Z,9.90
2018-12-08T00:11:11.709Z,9.74
2018-12-08T00:16:14.620Z,9.63
2018-12-08T00:21:17.585Z,9.50
2018-12-08T00:26:20.363Z,9.32
2018-12-08T00:31:40.621Z,9.20
2018-12-08T00:36:43.927Z,9.18
2018-12-08T00:41:46.796Z,9.02
2018-12-08T00:46:49.645Z,8.67
2018-12-08T00:51:52.396Z,8.53
2018-12-08T00:56:55.364Z,8.45
2018-12-08T01:01:58.257Z,8.37
2018-12-08T01:07:01.769Z,8.37
2018-12-08T01:12:04.809Z,8.33
2018-12-08T01:17:07.722Z,8.30
2018-12-08T01:22:10.655Z,8.23
2018-12-08T01:27:13.440Z,8.20
2018-12-08T01:32:16.343Z,8.18
2018-12-08T01:37:19.188Z,8.20
2018-12-08T01:42:22.065Z,8.21
2018-12-08T01:47:25.027Z,8.18
2018-12-08T01:52:27.917Z,8.22
2018-12-08T01:57:30.857Z,8.19
2018-12-08T02:02:34.085Z,8.14
2018-12-08T02:07:37.159Z,8.12
2018-12-08T02:12:40.036Z,8.07
2018-12-08T02:17:42.809Z,8.06
2018-12-08T02:22:45.464Z,8.05
2018-12-08T02:27:48.267Z,8.05
2018-12-08T02:32:51.206Z,8.04
2018-12-08T02:37:54.060Z,8.01
2018-12-08T02:42:56.805Z,7.96
2018-12-08T02:47:59.780Z,7.90
2018-12-08T02:53:02.824Z,7.86
2018-12-08T02:58:05.726Z,7.79
2018-12-08T03:03:08.645Z,7.77
2018-12-08T03:08:11.329Z,7.76
2018-12-08T03:13:14.902Z,7.76
2018-12-08T03:18:17.802Z,7.76
2018-12-08T03:23:20.661Z,7.79
2018-12-08T03:28:23.754Z,7.77
2018-12-08T03:33:26.636Z,7.79
2018-12-08T03:38:29.447Z,7.75
2018-12-08T03:43:32.370Z,7.72
2018-12-08T03:48:35.469Z,7.67
2018-12-08T03:53:38.324Z,7.62
2018-12-08T03:58:41.093Z,7.61
2018-12-08T04:03:44.031Z,7.54
2018-12-08T04:08:46.913Z,7.50
2018-12-08T04:13:49.620Z,7.42
2018-12-08T04:18:53.034Z,7.38
2018-12-08T04:23:55.753Z,7.31
2018-12-08T04:28:58.529Z,7.25
2018-12-08T04:34:01.309Z,7.21
2018-12-08T04:39:06.501Z,7.20
2018-12-08T04:44:10.677Z,7.22
2018-12-08T04:49:13.574Z,7.20
2018-12-08T04:54:16.569Z,7.18
2018-12-08T04:59:19.324Z,7.12
2018-12-08T05:04:22.141Z,7.09
2018-12-08T05:09:24.833Z,7.00
2018-12-08T05:14:27.644Z,6.96
2018-12-08T05:19:30.508Z,6.92
2018-12-08T05:24:33.492Z,6.91
2018-12-08T05:29:36.392Z,6.89
2018-12-08T05:34:39.434Z,6.85
2018-12-08T05:39:42.160Z,6.81
2018-12-08T05:44:45.326Z,6.77
2018-12-08T05:49:48.222Z,6.71
2018-12-08T05:54:50.998Z,6.70
2018-12-08T05:59:53.923Z,6.67
2018-12-08T06:04:56.814Z,6.61
2018-12-08T06:15:02.093Z,6.59
2018-12-08T06:20:05.696Z,6.60
2018-12-08T06:25:19.279Z,6.60
2018-12-08T06:30:22.384Z,6.56
2018-12-08T06:35:25.163Z,6.52
2018-12-08T06:40:29.258Z,6.47
2018-12-08T06:45:32.432Z,6.44
2018-12-08T06:50:35.420Z,6.44
2018-12-08T06:55:38.221Z,6.42
2018-12-08T07:00:41.116Z,6.41
2018-12-08T07:05:43.903Z,6.45
2018-12-08T07:10:46.766Z,6.46
2018-12-08T07:15:49.509Z,6.48
2018-12-08T07:20:52.350Z,6.53
2018-12-08T07:25:55.324Z,6.52
2018-12-08T07:30:58.191Z,6.53
2018-12-08T07:36:00.955Z,6.50
2018-12-08T07:41:03.808Z,6.54
2018-12-08T07:46:06.868Z,6.56
2018-12-08T07:51:09.756Z,6.54
2018-12-08T07:56:12.759Z,6.53
2018-12-08T08:01:15.769Z,6.51
2018-12-08T08:06:18.736Z,6.53
2018-12-08T08:11:21.810Z,6.55
2018-12-08T08:16:24.760Z,6.58
2018-12-08T08:21:27.682Z,6.58
2018-12-08T08:26:30.652Z,6.57
2018-12-08T08:31:33.521Z,6.56
2018-12-08T08:36:36.487Z,6.58
2018-12-08T08:41:39.140Z,6.55
2018-12-08T08:46:42.075Z,6.58
2018-12-08T08:51:45.100Z,6.56
2018-12-08T08:56:47.737Z,6.58
2018-12-08T09:01:50.584Z,6.63
2018-12-08T09:06:53.552Z,6.69
2018-12-08T09:11:56.500Z,6.77
2018-12-08T09:16:59.420Z,6.82
2018-12-08T09:22:05.252Z,6.90
2018-12-08T09:27:08.226Z,6.95
2018-12-08T09:32:11.267Z,7.04
2018-12-08T09:37:14.201Z,7.09
2018-12-08T09:42:17.191Z,7.12
2018-12-08T09:47:20.120Z,7.15
2018-12-08T09:52:24.462Z,7.25
2018-12-08T09:57:27.286Z,7.38
2018-12-08T10:02:30.144Z,7.41
2018-12-08T10:07:32.933Z,7.51
2018-12-08T10:12:35.742Z,7.68
2018-12-08T10:17:38.540Z,7.69
2018-12-08T10:22:41.385Z,7.67
2018-12-08T10:27:44.309Z,7.68
2018-12-08T10:32:47.123Z,7.73
2018-12-08T10:37:49.998Z,7.85
2018-12-08T10:42:52.800Z,7.74
2018-12-08T10:47:55.472Z,7.77
2018-12-08T10:52:59.131Z,7.77
2018-12-08T10:58:01.829Z,7.81
2018-12-08T11:03:10.604Z,7.83
2018-12-08T11:08:13.319Z,7.85
2018-12-08T11:13:16.099Z,7.93
2018-12-08T11:18:19.111Z,7.95
2018-12-08T11:23:21.942Z,8.05
2018-12-08T11:28:24.792Z,8.08
2018-12-08T11:33:27.693Z,8.17
2018-12-08T11:38:30.498Z,8.20
2018-12-08T11:43:33.427Z,8.17
2018-12-08T12:11:39.133Z,8.24
2018-12-08T12:16:43.295Z,8.31
2018-12-08T12:21:46.141Z,8.39
2018-12-08T12:26:49.004Z,8.39
2018-12-08T12:31:51.889Z,8.52
2018-12-08T12:36:54.714Z,8.47
2018-12-08T12:41:57.572Z,8.52
2018-12-08T12:47:00.475Z,8.52
2018-12-08T12:52:03.340Z,8.53
2018-12-08T12:57:06.169Z,8.56
2018-12-08T13:02:09.899Z,8.63
2018-12-08T13:07:12.804Z,8.69
2018-12-08T13:12:15.816Z,8.63
2018-12-08T13:17:18.620Z,8.60
2018-12-08T13:22:21.232Z,8.61
2018-12-08T13:27:24.101Z,8.67
2018-12-08T13:32:26.870Z,8.67
2018-12-08T13:37:29.667Z,8.68
2018-12-08T13:42:32.616Z,8.78
2018-12-08T13:47:35.596Z,8.80
2018-12-08T13:52:38.356Z,8.78
2018-12-08T13:57:41.184Z,8.69
2018-12-08T14:02:43.908Z,8.52
2018-12-08T14:07:46.674Z,8.31
2018-12-08T14:12:49.694Z,8.22
2018-12-08T14:17:52.531Z,8.12
2018-12-08T14:22:55.585Z,8.03
2018-12-08T14:27:58.540Z,7.94
2018-12-08T14:33:01.302Z,7.89
2018-12-08T14:38:04.261Z,7.77
2018-12-08T14:43:07.116Z,7.70
2018-12-08T14:48:09.987Z,7.60
2018-12-08T14:53:12.813Z,7.58
2018-12-08T14:58:15.672Z,7.60
2018-12-08T15:05:25.008Z,7.60
2018-12-08T15:10:27.953Z,7.54
2018-12-08T15:15:30.903Z,7.60
2018-12-08T15:20:33.729Z,7.55
2018-12-08T15:25:36.599Z,7.55
2018-12-08T15:30:39.399Z,7.49
2018-12-08T15:35:42.301Z,7.45
2018-12-08T15:40:45.261Z,7.39
2018-12-08T15:45:48.356Z,7.39
2018-12-08T15:50:51.325Z,7.41
2018-12-08T15:55:54.160Z,7.45
2018-12-08T16:00:56.807Z,7.46
2018-12-08T16:06:00.020Z,7.50
2018-12-08T16:11:02.807Z,7.55
2018-12-08T16:16:05.570Z,7.57
2018-12-08T16:21:08.670Z,7.60
2018-12-08T16:26:11.631Z,7.66
2018-12-08T16:31:14.427Z,7.73
2018-12-08T16:36:17.435Z,7.79
2018-12-08T16:41:20.324Z,7.92
2018-12-08T16:46:23.152Z,7.90
2018-12-08T16:51:26.024Z,7.91
2018-12-08T16:56:28.861Z,7.95
2018-12-08T17:01:31.819Z,8.03
2018-12-08T17:06:34.809Z,8.07
2018-12-08T17:11:37.655Z,8.14
2018-12-08T17:16:40.543Z,8.16
2018-12-08T17:21:43.394Z,8.23
2018-12-08T17:26:46.264Z,8.22
2018-12-08T17:31:49.188Z,8.26
2018-12-08T17:36:51.964Z,8.33
2018-12-08T17:41:54.904Z,8.33
2018-12-08T17:46:57.882Z,8.41
2018-12-08T17:52:00.852Z,8.44
2018-12-08T17:57:03.687Z,8.48
2018-12-08T18:02:06.652Z,8.54
2018-12-08T18:07:09.468Z,8.71
2018-12-08T18:12:12.436Z,8.70
2018-12-08T18:17:15.321Z,8.66
2018-12-08T18:22:18.433Z,8.72
2018-12-08T18:27:21.504Z,8.74
2018-12-08T18:32:24.387Z,8.75
2018-12-08T18:37:27.220Z,8.69
2018-12-08T18:42:30.063Z,8.69
2018-12-08T18:47:33.026Z,8.68
2018-12-08T18:52:36.082Z,8.74
2018-12-08T18:57:38.836Z,8.75
2018-12-08T19:02:41.713Z,8.67
2018-12-08T19:07:44.605Z,8.73
2018-12-08T19:12:47.577Z,8.70
2018-12-08T19:17:50.300Z,8.72
2018-12-08T19:22:53.140Z,8.72
2018-12-08T19:27:55.968Z,8.69
2018-12-08T19:32:58.795Z,8.63
2018-12-08T19:38:01.544Z,8.57
2018-12-08T19:43:04.281Z,8.50
2018-12-08T19:48:07.149Z,8.49
2018-12-08T19:53:09.965Z,8.44
2018-12-08T19:58:12.812Z,8.43
2018-12-08T20:03:15.695Z,8.38
2018-12-08T20:08:18.428Z,8.35
2018-12-08T20:13:21.164Z,8.31
2018-12-08T20:18:23.826Z,8.28
2018-12-08T20:23:26.715Z,8.21
2018-12-08T20:28:29.419Z,8.25
2018-12-08T20:33:32.068Z,8.24
2018-12-08T20:38:34.931Z,8.18
2018-12-08T20:43:37.612Z,8.18
2018-12-08T20:48:40.475Z,8.17
2018-12-08T20:53:43.337Z,8.13
2018-12-08T20:58:46.227Z,8.07
2018-12-08T21:03:48.908Z,8.03
2018-12-08T21:08:51.653Z,7.97
2018-12-08T21:13:54.458Z,7.92
2018-12-08T21:18:57.952Z,7.86
2018-12-08T21:24:01.009Z,7.77
2018-12-08T21:29:05.000Z,7.73
2018-12-08T21:34:07.885Z,7.69
2018-12-08T21:39:10.816Z,7.62
2018-12-08T21:44:13.684Z,7.60
2018-12-08T21:49:16.542Z,7.56
2018-12-08T21:54:19.324Z,7.52
2018-12-08T21:59:22.047Z,7.50
2018-12-08T22:04:24.600Z,7.44
2018-12-08T22:09:27.399Z,7.41
2018-12-08T22:14:30.257Z,7.37
2018-12-08T22:19:33.043Z,7.37
2018-12-08T22:24:35.792Z,7.37
2018-12-08T22:29:38.671Z,7.38
2018-12-08T22:34:41.410Z,7.38
2018-12-08T22:39:44.283Z,7.38
2018-12-08T22:44:47.200Z,7.43
2018-12-08T22:49:49.932Z,7.46
2018-12-08T22:54:52.671Z,7.52
2018-12-08T22:59:55.543Z,7.55
2018-12-08T23:04:58.293Z,7.66
2018-12-08T23:10:01.231Z,7.70
2018-12-08T23:15:04.392Z,7.69
2018-12-08T23:20:07.429Z,7.64
2018-12-08T23:25:10.256Z,7.63
2018-12-08T23:30:16.005Z,7.65
2018-12-08T23:35:19.029Z,7.68
2018-12-08T23:40:21.857Z,7.74
2018-12-08T23:45:24.699Z,7.73
2018-12-08T23:50:27.632Z,7.72
2018-12-08T23:55:30.512Z,7.71
